Mc Nary, Texas
Current Conditions -  °F | °C
As of 4:41 PM on Friday 31 Oct 2014 (Local Time) from MMCS Reporting Station
Scattered Clouds Scattered Clouds  
Wind Chill: 73°   Ceiling: Unl
Heat Index: 73°   Visibility: 10mi
Dew Point: 50°   Wind: 17mph
Humidity: 44%   Direction: 120°ESE
Pressure: 30.12"   Gusts: NA
Location:  31.5192°N, 105.683°W
Report Text: MMCS 312241Z 12015KT 10SM FEW030 SCT200 23/10 A3012 RMK 8/102
Loading
Personal Weather Stations






























Interactive Weather Map
Tropical Storm Tracking
New forecast layout! Learn more

10-Day Weather Forecast

Advertisements
Track Severe Weather on mobile